createdAt,value
2022-12-31T00:03:10.776Z,13.4
2022-12-31T00:08:10.771Z,15.0
2022-12-31T00:13:10.672Z,14.7
2022-12-31T00:18:10.756Z,14.7
2022-12-31T00:23:10.716Z,15.0
2022-12-31T00:28:10.762Z,12.5
2022-12-31T00:33:10.671Z,19.4
2022-12-31T00:38:10.765Z,13.9
2022-12-31T00:43:10.682Z,16.3
2022-12-31T00:48:10.811Z,16.3
2022-12-31T00:53:10.683Z,12.7
2022-12-31T00:58:10.762Z,16.1
2022-12-31T01:03:10.816Z,17.4
2022-12-31T01:08:10.708Z,17.7
2022-12-31T01:13:10.673Z,13.4
2022-12-31T01:18:10.762Z,13.4
2022-12-31T01:23:10.660Z,21.1
2022-12-31T01:28:10.756Z,18.4
2022-12-31T01:33:10.703Z,14.6
2022-12-31T01:38:10.762Z,13.3
2022-12-31T01:43:10.694Z,13.4
2022-12-31T01:48:10.766Z,13.4
2022-12-31T01:53:10.694Z,18.3
2022-12-31T01:58:10.765Z,16.7
2022-12-31T02:03:10.723Z,15.1
2022-12-31T02:08:10.784Z,19.8
2022-12-31T02:13:10.691Z,14.3
2022-12-31T02:18:10.768Z,14.3
2022-12-31T02:23:10.693Z,15.2
2022-12-31T02:28:10.785Z,17.0
2022-12-31T02:33:10.698Z,20.5
2022-12-31T02:38:10.764Z,14.1
2022-12-31T02:43:10.713Z,16.3
2022-12-31T02:48:10.777Z,16.3
2022-12-31T02:53:10.705Z,21.5
2022-12-31T02:58:10.767Z,19.6
2022-12-31T03:03:10.705Z,16.3
2022-12-31T03:08:10.767Z,13.2
2022-12-31T03:13:10.698Z,15.4
2022-12-31T03:18:10.761Z,15.4
2022-12-31T03:23:10.703Z,20.1
2022-12-31T03:28:10.758Z,14.5
2022-12-31T03:33:10.707Z,11.7
2022-12-31T03:38:10.808Z,18.2
2022-12-31T03:43:10.722Z,16.6
2022-12-31T03:48:10.801Z,16.6
2022-12-31T03:53:10.758Z,18.5
2022-12-31T03:58:10.818Z,11.3
2022-12-31T04:03:10.798Z,14.8
2022-12-31T04:08:10.839Z,14.9
2022-12-31T04:13:10.745Z,12.2
2022-12-31T04:18:10.835Z,12.2
2022-12-31T04:23:10.754Z,11.1
2022-12-31T04:28:10.852Z,14.0
2022-12-31T04:33:10.751Z,15.6
2022-12-31T04:38:10.851Z,8.6
2022-12-31T04:43:10.751Z,14.0
2022-12-31T04:48:10.807Z,14.0
2022-12-31T04:53:10.764Z,13.1
2022-12-31T04:58:10.838Z,15.0
2022-12-31T05:03:10.773Z,15.7
2022-12-31T05:08:10.858Z,16.5
2022-12-31T05:13:10.759Z,6.7
2022-12-31T05:18:10.816Z,6.7
2022-12-31T05:23:10.769Z,6.9
2022-12-31T05:28:10.879Z,9.2
2022-12-31T05:33:10.766Z,8.4
2022-12-31T05:38:10.869Z,6.4
2022-12-31T05:43:10.750Z,11.9
2022-12-31T05:48:10.862Z,11.9
2022-12-31T05:53:10.833Z,8.8
2022-12-31T05:58:10.819Z,8.0
2022-12-31T06:03:10.963Z,6.8
2022-12-31T06:08:10.859Z,5.9
2022-12-31T06:13:10.808Z,5.5
2022-12-31T06:18:10.827Z,5.5
2022-12-31T06:23:10.770Z,3.4
2022-12-31T06:28:16.154Z,3.3
2022-12-31T06:33:10.767Z,4.2
2022-12-31T06:38:10.861Z,4.6
2022-12-31T06:43:10.781Z,5.3
2022-12-31T06:48:10.867Z,5.3
2022-12-31T06:53:10.776Z,4.8
2022-12-31T06:58:10.872Z,2.7
2022-12-31T07:03:10.815Z,3.5
2022-12-31T07:08:10.948Z,5.9
2022-12-31T07:13:10.783Z,3.4
2022-12-31T07:18:10.844Z,3.4
2022-12-31T07:23:10.788Z,2.7
2022-12-31T07:28:10.900Z,2.5
2022-12-31T07:33:10.758Z,3.4
2022-12-31T07:38:10.895Z,5.4
2022-12-31T07:43:10.793Z,3.1
2022-12-31T07:48:10.880Z,3.1
2022-12-31T07:53:10.802Z,3.0
2022-12-31T07:58:10.887Z,2.1
2022-12-31T08:03:10.790Z,1.9
2022-12-31T08:08:10.848Z,2.8
2022-12-31T08:13:10.798Z,4.3
2022-12-31T08:18:10.853Z,4.3
2022-12-31T08:23:10.804Z,3.5
2022-12-31T08:28:10.900Z,3.6
2022-12-31T08:33:10.807Z,4.0
2022-12-31T08:38:10.897Z,4.5
2022-12-31T08:43:10.821Z,3.8
2022-12-31T08:48:10.886Z,3.8
2022-12-31T08:53:10.809Z,2.2
2022-12-31T08:58:10.904Z,3.2
2022-12-31T09:03:10.839Z,2.5
2022-12-31T09:08:10.862Z,2.0
2022-12-31T09:13:10.821Z,3.0
2022-12-31T09:18:10.900Z,3.0
2022-12-31T09:23:10.826Z,3.3
2022-12-31T09:28:10.876Z,2.7
2022-12-31T09:33:10.832Z,2.0
2022-12-31T09:38:11.764Z,4.0
2022-12-31T09:43:10.833Z,2.4
2022-12-31T09:48:10.983Z,2.4
2022-12-31T09:53:10.818Z,1.7
2022-12-31T09:58:10.886Z,3.1
2022-12-31T10:03:10.861Z,5.2
2022-12-31T10:08:10.882Z,5.7
2022-12-31T10:13:10.833Z,6.8
2022-12-31T10:18:10.920Z,6.8
2022-12-31T10:23:10.795Z,8.8
2022-12-31T10:28:10.915Z,6.7
2022-12-31T10:33:10.807Z,6.0
2022-12-31T10:38:10.882Z,7.6
2022-12-31T10:43:10.842Z,6.7
2022-12-31T10:48:10.883Z,6.7
2022-12-31T10:53:10.793Z,6.9
2022-12-31T10:58:10.883Z,6.9
2022-12-31T11:03:10.841Z,8.8
2022-12-31T11:08:10.879Z,5.5
2022-12-31T11:13:10.814Z,6.4
2022-12-31T11:18:10.943Z,6.4
2022-12-31T11:23:10.828Z,5.6
2022-12-31T11:28:10.879Z,7.1
2022-12-31T11:33:10.829Z,7.5
2022-12-31T11:38:10.896Z,7.1
2022-12-31T11:43:10.814Z,6.5
2022-12-31T11:48:31.264Z,6.5
2022-12-31T11:53:10.806Z,6.4
2022-12-31T11:58:10.921Z,4.7
2022-12-31T12:03:10.890Z,5.4
2022-12-31T12:08:10.888Z,6.9
2022-12-31T12:13:10.813Z,11.0
2022-12-31T12:18:10.890Z,11.0
2022-12-31T12:23:10.804Z,10.4
2022-12-31T12:28:10.912Z,7.0
2022-12-31T12:33:10.805Z,6.9
2022-12-31T12:38:10.885Z,7.2
2022-12-31T12:43:10.832Z,10.1
2022-12-31T12:48:10.877Z,10.1
2022-12-31T12:53:10.817Z,8.1
2022-12-31T12:58:14.130Z,29.4
2022-12-31T13:03:10.836Z,19.1
2022-12-31T13:08:10.877Z,13.5
2022-12-31T13:13:23.973Z,10.1
2022-12-31T13:18:10.919Z,10.1
2022-12-31T13:23:10.823Z,43.2
2022-12-31T13:28:10.933Z,36.8
2022-12-31T13:33:10.822Z,68.2
2022-12-31T13:38:10.912Z,53.6
2022-12-31T13:43:10.823Z,31.2
2022-12-31T13:48:10.877Z,31.2
2022-12-31T13:53:10.829Z,18.1
2022-12-31T13:58:10.919Z,17.7
2022-12-31T14:03:10.887Z,16.2
2022-12-31T14:08:10.881Z,20.9
2022-12-31T14:13:10.837Z,18.8
2022-12-31T14:18:10.886Z,18.8
2022-12-31T14:23:10.833Z,12.6
2022-12-31T14:28:10.935Z,18.2
2022-12-31T14:33:10.863Z,16.7
2022-12-31T14:38:10.891Z,12.7
2022-12-31T14:43:10.835Z,12.3
2022-12-31T14:48:10.893Z,12.3
2022-12-31T14:53:10.842Z,13.5
2022-12-31T14:58:27.639Z,11.4
2022-12-31T15:03:10.881Z,8.3
2022-12-31T15:08:10.896Z,10.5
2022-12-31T15:13:10.849Z,11.1
2022-12-31T15:18:10.901Z,11.1
2022-12-31T15:23:10.840Z,11.9
2022-12-31T15:28:10.948Z,19.3
2022-12-31T15:33:10.836Z,19.9
2022-12-31T15:38:10.974Z,19.5
2022-12-31T15:43:10.861Z,16.9
2022-12-31T15:48:10.902Z,16.9
2022-12-31T15:53:10.841Z,26.9
2022-12-31T15:58:10.942Z,12.1
2022-12-31T16:03:10.864Z,25.1
2022-12-31T16:08:10.911Z,19.2
2022-12-31T16:13:10.855Z,21.2
2022-12-31T16:18:10.907Z,21.2
2022-12-31T16:23:10.860Z,19.5
2022-12-31T16:28:10.957Z,22.1
2022-12-31T16:33:10.868Z,16.9
2022-12-31T16:38:10.982Z,13.5
2022-12-31T16:43:10.860Z,13.6
2022-12-31T16:48:16.627Z,13.6
2022-12-31T16:53:10.862Z,20.1
2022-12-31T16:58:10.929Z,19.0
2022-12-31T17:03:10.902Z,13.6
2022-12-31T17:08:10.927Z,18.5
2022-12-31T17:13:27.796Z,15.2
2022-12-31T17:18:10.925Z,15.2
2022-12-31T17:23:10.869Z,14.8
2022-12-31T17:28:11.004Z,26.1
2022-12-31T17:33:10.868Z,21.5
2022-12-31T17:38:10.939Z,24.5
2022-12-31T17:43:10.885Z,21.7
2022-12-31T17:48:10.942Z,21.7
2022-12-31T17:53:10.892Z,19.5
2022-12-31T17:58:10.939Z,26.6
2022-12-31T18:03:11.106Z,18.4
2022-12-31T18:08:10.939Z,21.9
2022-12-31T18:13:10.883Z,14.7
2022-12-31T18:18:10.946Z,14.7
2022-12-31T18:23:10.911Z,25.1
2022-12-31T18:28:11.056Z,17.2
2022-12-31T18:33:10.920Z,14.9
2022-12-31T18:38:10.965Z,15.4
2022-12-31T18:43:10.867Z,16.0
2022-12-31T18:48:10.952Z,16.0
2022-12-31T18:53:10.876Z,13.6
2022-12-31T18:58:11.015Z,17.0
2022-12-31T19:03:10.941Z,15.7
2022-12-31T19:08:10.990Z,19.4
2022-12-31T19:13:10.883Z,13.4
2022-12-31T19:18:11.047Z,13.4
2022-12-31T19:23:10.891Z,19.5
2022-12-31T19:28:10.988Z,16.7
2022-12-31T19:33:10.919Z,18.1
2022-12-31T19:38:10.996Z,15.8
2022-12-31T19:43:10.893Z,15.5
2022-12-31T19:48:10.979Z,15.5
2022-12-31T19:53:10.918Z,22.8
2022-12-31T19:58:10.953Z,17.5
2022-12-31T20:03:11.041Z,21.0
2022-12-31T20:08:10.987Z,13.8
2022-12-31T20:13:10.925Z,16.4
2022-12-31T20:18:11.011Z,16.4
2022-12-31T20:23:10.941Z,15.8
2022-12-31T20:28:11.025Z,16.6
2022-12-31T20:33:15.778Z,23.0
2022-12-31T20:38:11.002Z,24.2
2022-12-31T20:43:10.927Z,17.5
2022-12-31T20:48:11.012Z,17.5
2022-12-31T20:53:10.919Z,21.4
2022-12-31T20:58:11.010Z,25.0
2022-12-31T21:03:30.102Z,32.8
2022-12-31T21:08:10.970Z,24.8
2022-12-31T21:13:10.923Z,32.2
2022-12-31T21:18:11.006Z,32.2
2022-12-31T21:23:10.922Z,22.9
2022-12-31T21:28:11.036Z,15.8
2022-12-31T21:33:10.933Z,6.0
2022-12-31T21:38:11.019Z,4.8
2022-12-31T21:43:10.942Z,5.1
2022-12-31T21:48:11.015Z,5.1
2022-12-31T21:53:10.942Z,7.2
2022-12-31T21:58:27.751Z,5.3
2022-12-31T22:03:11.007Z,10.4
2022-12-31T22:08:11.031Z,11.1
2022-12-31T22:13:10.988Z,12.0
2022-12-31T22:18:11.030Z,12.0
2022-12-31T22:23:10.948Z,12.9
2022-12-31T22:28:37.449Z,10.3
2022-12-31T22:33:10.938Z,7.9
2022-12-31T22:38:12.351Z,7.0
2022-12-31T22:43:10.969Z,7.9
2022-12-31T22:48:11.049Z,7.9
2022-12-31T22:53:10.962Z,8.1
2022-12-31T22:58:11.044Z,5.7
2022-12-31T23:03:11.008Z,5.3
2022-12-31T23:08:20.523Z,5.7
2022-12-31T23:13:10.949Z,4.2
2022-12-31T23:18:11.047Z,4.2
2022-12-31T23:23:10.957Z,4.7
2022-12-31T23:28:11.062Z,6.8
2022-12-31T23:33:10.961Z,3.5
2022-12-31T23:38:11.049Z,5.5
2022-12-31T23:43:10.976Z,6.9
2022-12-31T23:48:11.054Z,6.9
2022-12-31T23:53:10.979Z,6.6
2022-12-31T23:58:11.055Z,3.1
